Time;durP1;ratioP1;P1;durP2;ratioP2;P2;SDS_P1;SDS_P2;PMS_P1;PMS_P2;Temp;Humidity;BMP_temperature;BMP_pressure;BME280_temperature;BME280_humidity;BME280_pressure;Samples;Min_cycle;Max_cycle;Signal;HPM_P1;HPM_P2
2023/06/06 00:00:50;;;;;;;14.60;8.77;;;;;;;;;;5093943;28;20697;-64
2023/06/06 00:03:21;;;;;;;14.93;8.80;;;;;;;;;;5094642;28;20173;-65
2023/06/06 00:05:48;;;;;;;16.20;8.80;;;;;;;;;;5094943;28;20174;-65
2023/06/06 00:08:14;;;;;;;12.73;9.27;;;;;;;;;;5094071;28;20184;-65
2023/06/06 00:10:40;;;;;;;11.10;8.93;;;;;;;;;;5075670;28;20677;-65
2023/06/06 00:13:05;;;;;;;15.40;8.90;;;;;;;;;;5075719;28;20188;-65
2023/06/06 00:15:32;;;;;;;16.50;9.47;;;;;;;;;;5094089;28;20264;-65
2023/06/06 00:18:00;;;;;;;18.57;9.33;;;;;;;;;;5093965;28;20277;-65
2023/06/06 00:20:26;;;;;;;13.17;9.23;;;;;;;;;;5094203;28;20204;-65
2023/06/06 00:22:53;;;;;;;14.90;8.77;;;;;;;;;;5094777;28;20184;-65
2023/06/06 00:25:19;;;;;;;14.47;8.97;;;;;;;;;;5094059;28;20252;-65
2023/06/06 00:27:45;;;;;;;11.23;8.83;;;;;;;;;;5093711;28;20197;-65
2023/06/06 00:30:11;;;;;;;12.97;9.17;;;;;;;;;;5093942;28;20181;-66
2023/06/06 00:32:37;;;;;;;13.73;9.13;;;;;;;;;;5095072;28;20181;-66
2023/06/06 00:35:03;;;;;;;17.17;9.57;;;;;;;;;;5093631;28;20177;-64
2023/06/06 00:37:29;;;;;;;18.50;9.07;;;;;;;;;;5093121;28;20727;-64
2023/06/06 00:39:55;;;;;;;13.87;8.80;;;;;;;;;;5093440;28;20292;-64
2023/06/06 00:42:21;;;;;;;16.27;8.83;;;;;;;;;;5093472;28;20216;-64
2023/06/06 00:44:47;;;;;;;13.97;8.73;;;;;;;;;;5094113;28;20173;-64
2023/06/06 00:47:13;;;;;;;16.43;9.30;;;;;;;;;;5093410;28;20242;-64
2023/06/06 00:49:40;;;;;;;12.53;9.23;;;;;;;;;;5093517;28;20173;-64
2023/06/06 00:52:06;;;;;;;16.30;9.50;;;;;;;;;;5094000;28;20546;-64
2023/06/06 00:54:33;;;;;;;16.87;10.20;;;;;;;;;;5093457;28;20204;-64
2023/06/06 00:57:00;;;;;;;21.73;10.37;;;;;;;;;;5075446;28;20232;-64
2023/06/06 00:59:26;;;;;;;15.37;9.90;;;;;;;;;;5075430;28;20694;-63
2023/06/06 01:01:53;;;;;;;14.93;10.03;;;;;;;;;;5075355;28;20191;-64
2023/06/06 01:04:20;;;;;;;12.63;9.13;;;;;;;;;;5094195;28;20184;-64
2023/06/06 01:06:46;;;;;;;14.13;9.90;;;;;;;;;;5094350;28;20682;-65
2023/06/06 01:09:15;;;;;;;15.37;9.20;;;;;;;;;;5095183;28;20173;-64
2023/06/06 01:12:11;;;;;;;11.00;8.67;;;;;;;;;;5094892;28;20176;-64
2023/06/06 01:14:55;;;;;;;10.77;9.57;;;;;;;;;;5056893;28;20182;-64
2023/06/06 01:17:25;;;;;;;16.37;10.27;;;;;;;;;;5093694;28;20193;-65
2023/06/06 01:19:52;;;;;;;21.60;13.00;;;;;;;;;;5093139;28;20225;-64
2023/06/06 01:22:22;;;;;;;48.73;28.40;;;;;;;;;;5093161;28;20173;-65
2023/06/06 01:24:50;;;;;;;50.03;31.57;;;;;;;;;;5094033;28;20161;-65
2023/06/06 01:27:17;;;;;;;37.60;23.70;;;;;;;;;;5093292;28;20272;-64
2023/06/06 01:29:43;;;;;;;36.87;27.27;;;;;;;;;;5093338;28;20198;-64
2023/06/06 01:32:13;;;;;;;42.20;24.93;;;;;;;;;;5093115;28;20181;-64
2023/06/06 01:34:42;;;;;;;31.47;22.60;;;;;;;;;;5093818;28;20174;-64
2023/06/06 01:37:11;;;;;;;19.00;12.23;;;;;;;;;;5092932;28;20671;-64
2023/06/06 01:39:40;;;;;;;17.30;10.80;;;;;;;;;;5074729;28;20569;-64
2023/06/06 01:42:06;;;;;;;18.97;10.73;;;;;;;;;;5093346;28;20173;-66
2023/06/06 01:44:33;;;;;;;13.43;10.80;;;;;;;;;;5092797;28;20250;-64
2023/06/06 01:47:00;;;;;;;25.20;14.50;;;;;;;;;;5074717;28;20618;-64
2023/06/06 01:49:26;;;;;;;14.47;11.47;;;;;;;;;;5094691;28;20177;-64
2023/06/06 01:51:53;;;;;;;26.47;15.47;;;;;;;;;;5096743;28;20195;-64
2023/06/06 01:54:19;;;;;;;22.43;13.70;;;;;;;;;;5096760;28;20177;-64
2023/06/06 01:56:45;;;;;;;22.27;13.83;;;;;;;;;;5096394;28;20200;-65
2023/06/06 01:59:11;;;;;;;21.97;13.13;;;;;;;;;;5096390;28;20235;-64
2023/06/06 02:01:37;;;;;;;16.43;10.73;;;;;;;;;;5096358;28;20599;-64
2023/06/06 02:04:03;;;;;;;16.90;11.70;;;;;;;;;;5096251;28;20670;-64
2023/06/06 02:06:29;;;;;;;16.23;11.13;;;;;;;;;;5095954;28;20212;-64
2023/06/06 02:08:55;;;;;;;17.10;11.83;;;;;;;;;;5096503;28;20150;-64
2023/06/06 02:11:23;;;;;;;18.30;12.10;;;;;;;;;;5096242;28;20177;-64
2023/06/06 02:13:49;;;;;;;20.23;11.33;;;;;;;;;;5096107;28;20173;-64
2023/06/06 02:16:15;;;;;;;16.97;11.53;;;;;;;;;;5095782;28;20197;-65
2023/06/06 02:18:44;;;;;;;17.27;12.10;;;;;;;;;;5096304;28;20173;-64
2023/06/06 02:21:10;;;;;;;16.17;11.43;;;;;;;;;;5095809;28;20201;-64
2023/06/06 02:23:36;;;;;;;14.67;10.47;;;;;;;;;;5096111;28;20524;-64
2023/06/06 02:26:03;;;;;;;19.07;12.03;;;;;;;;;;5095761;28;20276;-65
2023/06/06 02:28:30;;;;;;;19.07;12.47;;;;;;;;;;5095700;28;20261;-64
2023/06/06 02:30:56;;;;;;;16.27;12.37;;;;;;;;;;5095864;28;20646;-64
2023/06/06 02:33:22;;;;;;;20.67;12.90;;;;;;;;;;5095976;28;20239;-64
2023/06/06 02:35:48;;;;;;;17.67;12.43;;;;;;;;;;5095748;28;20177;-65
2023/06/06 02:38:14;;;;;;;17.57;12.50;;;;;;;;;;5095562;28;20310;-64
2023/06/06 02:40:40;;;;;;;19.43;12.23;;;;;;;;;;5095965;28;20207;-64
2023/06/06 02:43:06;;;;;;;14.23;12.00;;;;;;;;;;5095480;28;20174;-64
2023/06/06 02:45:32;;;;;;;17.57;12.00;;;;;;;;;;5095330;28;20181;-64
2023/06/06 02:47:58;;;;;;;17.77;12.03;;;;;;;;;;5095299;28;20211;-64
2023/06/06 02:50:24;;;;;;;16.80;11.93;;;;;;;;;;5095315;28;20173;-64
2023/06/06 02:52:51;;;;;;;19.43;12.87;;;;;;;;;;5095556;28;20177;-65
2023/06/06 02:55:17;;;;;;;20.63;13.13;;;;;;;;;;5095253;28;20173;-64
2023/06/06 02:57:43;;;;;;;19.30;12.33;;;;;;;;;;5095237;28;20283;-64
2023/06/06 03:00:10;;;;;;;18.90;12.13;;;;;;;;;;5094885;28;20287;-64
2023/06/06 03:02:36;;;;;;;15.40;12.60;;;;;;;;;;5094990;28;20169;-64
2023/06/06 03:05:03;;;;;;;15.30;12.90;;;;;;;;;;5095178;28;20527;-64
2023/06/06 03:07:30;;;;;;;17.13;12.40;;;;;;;;;;5094968;28;20605;-64
2023/06/06 03:09:56;;;;;;;18.80;13.30;;;;;;;;;;5095256;28;20527;-64
2023/06/06 03:12:22;;;;;;;22.63;13.73;;;;;;;;;;5076784;28;20192;-64
2023/06/06 03:14:48;;;;;;;16.87;11.63;;;;;;;;;;5076719;28;20177;-65
2023/06/06 03:17:14;;;;;;;20.87;12.10;;;;;;;;;;5095091;28;20201;-67
2023/06/06 03:19:40;;;;;;;18.80;12.60;;;;;;;;;;5076511;28;20209;-65
2023/06/06 03:22:06;;;;;;;18.77;12.23;;;;;;;;;;5095017;28;20176;-65
2023/06/06 03:24:33;;;;;;;21.20;11.70;;;;;;;;;;5095165;28;20169;-65
2023/06/06 03:27:00;;;;;;;16.07;12.23;;;;;;;;;;5076826;28;20216;-66
2023/06/06 03:29:26;;;;;;;16.47;12.10;;;;;;;;;;5095039;28;20654;-66
2023/06/06 03:31:52;;;;;;;18.93;11.20;;;;;;;;;;5095256;28;20191;-66
2023/06/06 03:34:18;;;;;;;20.43;12.20;;;;;;;;;;5096007;28;20181;-68
2023/06/06 03:36:44;;;;;;;26.43;13.27;;;;;;;;;;5095430;28;20257;-67
2023/06/06 03:39:10;;;;;;;20.53;12.67;;;;;;;;;;5094888;28;20201;-65
2023/06/06 03:41:36;;;;;;;21.57;13.83;;;;;;;;;;5095299;28;20181;-68
2023/06/06 03:44:02;;;;;;;17.93;13.10;;;;;;;;;;5095926;28;20256;-70
2023/06/06 03:46:28;;;;;;;21.00;13.47;;;;;;;;;;5095417;28;20216;-66
2023/06/06 03:48:54;;;;;;;20.20;13.17;;;;;;;;;;5094915;28;20611;-67
2023/06/06 03:51:20;;;;;;;26.10;13.47;;;;;;;;;;5095025;28;20173;-66
2023/06/06 03:53:46;;;;;;;29.37;14.47;;;;;;;;;;5094539;28;20250;-65
2023/06/06 03:56:12;;;;;;;20.77;14.20;;;;;;;;;;5094553;28;20189;-66
2023/06/06 03:58:38;;;;;;;22.93;14.57;;;;;;;;;;5095611;28;20665;-66
2023/06/06 04:01:04;;;;;;;22.43;15.30;;;;;;;;;;5076443;28;20707;-66
2023/06/06 04:03:36;;;;;;;21.23;14.73;;;;;;;;;;5094743;28;20173;-66
2023/06/06 04:06:04;;;;;;;25.60;14.70;;;;;;;;;;5095234;28;20196;-68
2023/06/06 04:08:30;;;;;;;22.37;13.70;;;;;;;;;;5077148;28;20203;-66
2023/06/06 04:10:57;;;;;;;18.27;13.47;;;;;;;;;;5095787;28;20181;-67
2023/06/06 04:13:23;;;;;;;25.47;14.03;;;;;;;;;;5094236;28;20236;-64
2023/06/06 04:15:49;;;;;;;16.50;11.97;;;;;;;;;;5095780;28;20216;-64
2023/06/06 04:18:15;;;;;;;19.80;11.70;;;;;;;;;;5095935;28;20181;-64
2023/06/06 04:20:44;;;;;;;20.40;12.23;;;;;;;;;;5094778;28;20200;-65
2023/06/06 04:23:10;;;;;;;18.23;11.67;;;;;;;;;;5094622;28;20205;-65
2023/06/06 04:25:36;;;;;;;17.33;12.00;;;;;;;;;;5094537;28;20544;-66
2023/06/06 04:28:02;;;;;;;22.33;12.97;;;;;;;;;;5094564;28;20208;-65
2023/06/06 04:30:29;;;;;;;18.07;13.03;;;;;;;;;;5094282;28;20207;-65
2023/06/06 04:32:56;;;;;;;19.63;12.27;;;;;;;;;;5075712;28;20181;-65
2023/06/06 04:35:22;;;;;;;17.87;11.63;;;;;;;;;;5094501;28;20177;-64
2023/06/06 04:37:50;;;;;;;19.77;13.20;;;;;;;;;;5093850;28;20208;-65
2023/06/06 04:40:16;;;;;;;19.23;12.70;;;;;;;;;;5094143;28;20277;-65
2023/06/06 04:42:42;;;;;;;17.70;12.10;;;;;;;;;;5094348;28;20256;-65
2023/06/06 04:45:09;;;;;;;17.67;11.83;;;;;;;;;;5094231;28;20177;-65
2023/06/06 04:50:04;;;;;;;17.70;11.73;;;;;;;;;;5091773;28;20248;-68
2023/06/06 04:52:30;;;;;;;18.43;11.13;;;;;;;;;;5093438;28;20178;-68
2023/06/06 04:54:56;;;;;;;16.83;11.20;;;;;;;;;;5093620;28;20173;-69
2023/06/06 04:57:23;;;;;;;14.60;11.40;;;;;;;;;;5093619;28;20208;-68
2023/06/06 04:59:52;;;;;;;14.07;10.80;;;;;;;;;;5093586;28;20246;-68
2023/06/06 05:02:20;;;;;;;18.60;12.33;;;;;;;;;;5092528;28;20573;-68
2023/06/06 05:04:47;;;;;;;14.97;11.00;;;;;;;;;;5093934;28;20221;-68
2023/06/06 05:07:13;;;;;;;21.17;11.47;;;;;;;;;;5093826;28;20627;-69
2023/06/06 05:09:39;;;;;;;17.23;11.67;;;;;;;;;;5092398;28;20207;-67
2023/06/06 05:12:05;;;;;;;14.37;10.83;;;;;;;;;;5093774;28;20177;-68
2023/06/06 05:14:31;;;;;;;14.70;10.33;;;;;;;;;;5093862;28;20178;-69
2023/06/06 05:16:57;;;;;;;13.43;10.77;;;;;;;;;;5092323;28;20536;-68
2023/06/06 05:19:23;;;;;;;16.43;10.97;;;;;;;;;;5094504;28;20200;-69
2023/06/06 05:21:49;;;;;;;17.87;10.40;;;;;;;;;;5095303;28;20177;-68
2023/06/06 05:24:15;;;;;;;15.67;10.40;;;;;;;;;;5094504;28;20173;-70
2023/06/06 05:26:42;;;;;;;19.27;11.80;;;;;;;;;;5098264;28;20181;-68
2023/06/06 05:29:08;;;;;;;19.03;12.17;;;;;;;;;;5098456;28;20205;-69
2023/06/06 05:31:34;;;;;;;20.83;12.63;;;;;;;;;;5097500;28;20704;-69
2023/06/06 05:34:00;;;;;;;17.47;12.80;;;;;;;;;;5098350;28;20173;-69
2023/06/06 05:36:27;;;;;;;21.60;12.93;;;;;;;;;;5098082;28;20212;-68
2023/06/06 05:38:53;;;;;;;16.17;11.30;;;;;;;;;;5097508;28;20220;-68
2023/06/06 05:41:20;;;;;;;18.23;12.03;;;;;;;;;;5098724;28;20203;-68
2023/06/06 05:43:46;;;;;;;13.97;11.47;;;;;;;;;;5099057;28;20529;-70
2023/06/06 05:46:13;;;;;;;16.83;10.87;;;;;;;;;;5099498;28;20184;-69
2023/06/06 05:48:39;;;;;;;14.80;11.13;;;;;;;;;;5096890;28;20216;-69
2023/06/06 05:51:05;;;;;;;15.37;11.17;;;;;;;;;;5097372;28;20180;-70
2023/06/06 05:53:31;;;;;;;17.90;11.03;;;;;;;;;;5096682;28;20173;-69
2023/06/06 05:55:57;;;;;;;20.73;12.13;;;;;;;;;;5096878;28;20179;-69
2023/06/06 05:58:23;;;;;;;16.40;11.83;;;;;;;;;;5096880;28;20205;-70
2023/06/06 06:00:49;;;;;;;16.33;11.07;;;;;;;;;;5096556;28;20197;-69
2023/06/06 06:03:15;;;;;;;19.30;12.03;;;;;;;;;;5096588;28;20252;-70
2023/06/06 06:05:42;;;;;;;16.40;11.63;;;;;;;;;;5096401;28;20264;-70
2023/06/06 06:08:08;;;;;;;14.70;10.37;;;;;;;;;;5096249;28;20199;-69
2023/06/06 06:10:38;;;;;;;16.97;10.83;;;;;;;;;;5096518;28;20180;-69
2023/06/06 06:13:05;;;;;;;18.30;10.97;;;;;;;;;;5095051;28;20212;-69
2023/06/06 06:15:31;;;;;;;14.37;11.43;;;;;;;;;;5094961;28;20181;-70
2023/06/06 06:17:57;;;;;;;15.23;11.27;;;;;;;;;;5094971;28;20200;-69
2023/06/06 06:20:23;;;;;;;18.50;11.80;;;;;;;;;;5097696;28;20547;-69
2023/06/06 06:22:49;;;;;;;15.63;12.30;;;;;;;;;;5100575;28;20184;-70
2023/06/06 06:25:16;;;;;;;21.67;12.10;;;;;;;;;;5103075;28;20177;-70
2023/06/06 06:27:43;;;;;;;17.83;12.97;;;;;;;;;;5095489;28;20173;-69
2023/06/06 06:30:10;;;;;;;17.50;12.63;;;;;;;;;;5094659;28;20193;-69
2023/06/06 06:32:37;;;;;;;17.80;12.37;;;;;;;;;;5096369;28;20185;-70
2023/06/06 06:35:03;;;;;;;18.23;12.40;;;;;;;;;;5096762;28;20182;-70
2023/06/06 06:37:30;;;;;;;15.90;12.33;;;;;;;;;;5094819;28;20188;-69
2023/06/06 06:39:56;;;;;;;17.53;11.77;;;;;;;;;;5095915;28;20205;-70
2023/06/06 06:42:22;;;;;;;18.63;12.40;;;;;;;;;;5095876;28;20184;-70
2023/06/06 06:44:48;;;;;;;22.33;13.03;;;;;;;;;;5094354;28;20185;-69
2023/06/06 06:47:14;;;;;;;15.63;12.10;;;;;;;;;;5095862;28;20169;-69
2023/06/06 06:49:41;;;;;;;19.00;12.03;;;;;;;;;;5095486;28;20204;-69
2023/06/06 06:52:07;;;;;;;17.93;12.03;;;;;;;;;;5094301;28;20185;-69
2023/06/06 06:54:35;;;;;;;15.27;11.83;;;;;;;;;;5094183;28;20269;-70
2023/06/06 06:57:02;;;;;;;17.33;12.20;;;;;;;;;;5095703;28;20204;-69
2023/06/06 06:59:28;;;;;;;17.63;12.80;;;;;;;;;;5108882;28;20231;-70
2023/06/06 07:01:54;;;;;;;23.03;12.47;;;;;;;;;;5113578;28;20177;-71
2023/06/06 07:04:20;;;;;;;21.97;12.57;;;;;;;;;;5104935;28;20260;-69
2023/06/06 07:06:46;;;;;;;19.63;12.10;;;;;;;;;;5097942;28;20173;-69
2023/06/06 07:09:13;;;;;;;19.07;12.83;;;;;;;;;;5095821;28;20197;-69
2023/06/06 07:11:39;;;;;;;15.87;11.97;;;;;;;;;;5096752;28;20248;-70
2023/06/06 07:14:05;;;;;;;20.10;12.53;;;;;;;;;;5096341;28;20188;-70
2023/06/06 07:16:34;;;;;;;24.63;13.10;;;;;;;;;;5096630;28;20223;-69
2023/06/06 07:19:00;;;;;;;19.13;12.93;;;;;;;;;;5095526;28;20193;-70
2023/06/06 07:21:26;;;;;;;15.97;12.53;;;;;;;;;;5095383;28;20560;-69
2023/06/06 07:23:52;;;;;;;21.47;13.00;;;;;;;;;;5095122;28;20181;-69
2023/06/06 07:26:19;;;;;;;23.03;13.17;;;;;;;;;;5094971;28;20181;-70
2023/06/06 07:28:46;;;;;;;28.10;13.17;;;;;;;;;;5095115;28;20200;-69
2023/06/06 07:31:12;;;;;;;20.30;12.43;;;;;;;;;;5094941;28;20197;-70
2023/06/06 07:33:38;;;;;;;17.97;12.43;;;;;;;;;;5095088;28;20638;-70
2023/06/06 07:36:05;;;;;;;21.60;12.57;;;;;;;;;;5093813;28;20177;-70
2023/06/06 07:38:31;;;;;;;26.40;12.17;;;;;;;;;;5093747;28;20200;-70
2023/06/06 07:40:57;;;;;;;20.40;12.33;;;;;;;;;;5094879;28;20288;-69
2023/06/06 07:43:24;;;;;;;25.57;12.43;;;;;;;;;;5093713;28;20291;-69
2023/06/06 07:45:50;;;;;;;27.50;13.17;;;;;;;;;;5094339;28;20204;-70
2023/06/06 07:48:16;;;;;;;23.93;12.53;;;;;;;;;;5093656;28;20284;-69
2023/06/06 07:50:42;;;;;;;21.30;12.77;;;;;;;;;;5095533;28;20185;-70
2023/06/06 07:53:10;;;;;;;16.73;10.70;;;;;;;;;;5093085;28;20195;-69
2023/06/06 07:55:37;;;;;;;21.73;12.50;;;;;;;;;;5094558;28;20200;-69
2023/06/06 07:58:05;;;;;;;23.50;11.90;;;;;;;;;;5093121;28;20201;-70
2023/06/06 08:00:31;;;;;;;28.50;13.20;;;;;;;;;;5094058;28;20287;-70
2023/06/06 08:02:57;;;;;;;26.27;12.57;;;;;;;;;;5094215;28;20256;-70
2023/06/06 08:05:23;;;;;;;22.67;11.87;;;;;;;;;;5092759;28;20543;-69
2023/06/06 08:07:49;;;;;;;19.93;11.77;;;;;;;;;;5092581;28;20692;-70
2023/06/06 08:10:15;;;;;;;14.80;11.77;;;;;;;;;;5093656;28;20177;-70
2023/06/06 08:12:41;;;;;;;19.67;11.97;;;;;;;;;;5092397;28;20189;-69
2023/06/06 08:15:09;;;;;;;21.30;10.73;;;;;;;;;;5093817;28;20173;-70
2023/06/06 08:17:35;;;;;;;19.47;11.77;;;;;;;;;;5092329;28;20184;-70
2023/06/06 08:20:02;;;;;;;16.87;11.23;;;;;;;;;;5094199;28;20746;-70
2023/06/06 08:22:29;;;;;;;15.77;11.33;;;;;;;;;;5093675;28;20592;-70
2023/06/06 08:24:55;;;;;;;15.67;11.07;;;;;;;;;;5094143;28;20214;-70
2023/06/06 08:27:21;;;;;;;16.13;10.93;;;;;;;;;;5093623;28;20173;-70
2023/06/06 08:29:47;;;;;;;16.47;11.80;;;;;;;;;;5093641;28;20231;-70
2023/06/06 08:32:12;;;;;;;15.80;12.27;;;;;;;;;;5093848;28;20185;-70
2023/06/06 08:34:38;;;;;;;20.27;10.50;;;;;;;;;;5092326;28;20189;-69
2023/06/06 08:37:05;;;;;;;17.57;11.27;;;;;;;;;;5092440;28;20192;-71
2023/06/06 08:39:31;;;;;;;18.17;10.20;;;;;;;;;;5093487;28;20205;-69
2023/06/06 08:41:57;;;;;;;18.77;11.43;;;;;;;;;;5093895;28;20180;-69
2023/06/06 08:44:24;;;;;;;15.70;11.30;;;;;;;;;;5094967;28;20198;-70
2023/06/06 08:46:50;;;;;;;17.57;11.07;;;;;;;;;;5095667;28;20237;-69
2023/06/06 08:49:18;;;;;;;16.17;11.80;;;;;;;;;;5095803;28;20216;-70
2023/06/06 08:51:45;;;;;;;15.70;10.90;;;;;;;;;;5096902;28;20277;-70
2023/06/06 08:54:11;;;;;;;17.13;11.50;;;;;;;;;;5094063;28;20271;-70
2023/06/06 08:56:38;;;;;;;16.77;10.87;;;;;;;;;;5094024;28;20176;-70
2023/06/06 08:59:04;;;;;;;19.90;11.23;;;;;;;;;;5098047;28;20200;-70
2023/06/06 09:01:30;;;;;;;18.87;10.77;;;;;;;;;;5097647;28;20184;-70
2023/06/06 09:03:58;;;;;;;19.00;10.90;;;;;;;;;;5106678;28;20181;-70
2023/06/06 09:06:23;;;;;;;14.87;10.93;;;;;;;;;;5110912;28;20196;-70
2023/06/06 09:08:50;;;;;;;16.10;10.90;;;;;;;;;;5108765;28;20204;-69
2023/06/06 09:11:17;;;;;;;15.90;11.20;;;;;;;;;;5108687;28;20184;-69
2023/06/06 09:13:43;;;;;;;15.33;10.40;;;;;;;;;;5107422;28;20557;-69
2023/06/06 09:16:09;;;;;;;14.67;11.00;;;;;;;;;;5101482;28;20173;-69
2023/06/06 09:18:38;;;;;;;15.10;10.07;;;;;;;;;;5099634;28;20230;-69
2023/06/06 09:21:04;;;;;;;14.67;10.20;;;;;;;;;;5102454;28;20228;-69
2023/06/06 09:23:31;;;;;;;12.50;9.70;;;;;;;;;;5100807;28;20176;-69
2023/06/06 09:25:57;;;;;;;22.37;11.40;;;;;;;;;;5101161;28;20180;-69
2023/06/06 09:28:36;;;;;;;21.13;10.40;;;;;;;;;;5101071;28;20193;-69
2023/06/06 09:31:21;;;;;;;16.93;10.93;;;;;;;;;;5101466;28;20243;-69
2023/06/06 09:33:48;;;;;;;15.73;10.80;;;;;;;;;;5099719;28;20180;-69
2023/06/06 09:36:14;;;;;;;13.87;10.47;;;;;;;;;;5103956;28;20647;-69
2023/06/06 09:38:40;;;;;;;14.73;10.47;;;;;;;;;;5101593;28;20252;-70
2023/06/06 09:41:07;;;;;;;14.83;10.70;;;;;;;;;;5101053;28;20196;-69
2023/06/06 09:43:36;;;;;;;15.17;9.93;;;;;;;;;;5095991;28;20714;-70
2023/06/06 09:46:05;;;;;;;14.23;9.23;;;;;;;;;;5095549;28;20177;-69
2023/06/06 09:48:31;;;;;;;16.10;9.77;;;;;;;;;;5096290;28;20208;-70
2023/06/06 09:50:57;;;;;;;14.50;9.27;;;;;;;;;;5096566;28;20260;-70
2023/06/06 09:53:26;;;;;;;11.73;8.90;;;;;;;;;;5096387;28;20180;-69
2023/06/06 09:55:54;;;;;;;17.50;10.20;;;;;;;;;;5095296;28;20191;-71
2023/06/06 09:58:21;;;;;;;16.23;11.33;;;;;;;;;;5096446;28;20262;-71
2023/06/06 10:00:50;;;;;;;11.97;9.70;;;;;;;;;;5096292;28;20572;-69
2023/06/06 10:03:21;;;;;;;9.47;8.47;;;;;;;;;;5096229;28;20264;-69
2023/06/06 10:05:47;;;;;;;10.93;8.37;;;;;;;;;;5096257;28;20208;-69
2023/06/06 10:08:15;;;;;;;11.93;8.30;;;;;;;;;;5096064;28;20229;-69
2023/06/06 10:10:44;;;;;;;9.73;7.83;;;;;;;;;;5095445;28;20181;-70
2023/06/06 10:13:12;;;;;;;15.23;9.33;;;;;;;;;;5096309;28;20647;-69
2023/06/06 10:15:38;;;;;;;12.40;8.37;;;;;;;;;;5094795;28;20246;-70
2023/06/06 10:18:05;;;;;;;14.13;8.70;;;;;;;;;;5094804;28;20551;-69
2023/06/06 10:20:31;;;;;;;14.40;8.80;;;;;;;;;;5096605;28;20197;-69
2023/06/06 10:22:58;;;;;;;20.07;8.63;;;;;;;;;;5096200;28;20586;-69
2023/06/06 10:25:24;;;;;;;16.33;12.47;;;;;;;;;;5096465;28;20181;-69
2023/06/06 10:27:50;;;;;;;;;;;;;;;;;;5096590;28;20459;-69
2023/06/06 10:30:16;;;;;;;;;;;;;;;;;;5096485;28;19904;-69
2023/06/06 10:32:42;;;;;;;;;;;;;;;;;;5094718;28;19907;-70
2023/06/06 10:35:08;;;;;;;;;;;;;;;;;;5095863;28;19954;-69
2023/06/06 10:37:38;;;;;;;;;;;;;;;;;;5096149;28;19904;-68
2023/06/06 10:40:09;;;;;;;;;;;;;;;;;;5094494;28;20457;-70
2023/06/06 10:42:36;;;;;;;;;;;;;;;;;;5095950;28;19990;-70
2023/06/06 10:45:02;;;;;;;;;;;;;;;;;;5094501;28;20356;-70
2023/06/06 10:47:28;;;;;;;;;;;;;;;;;;5095934;28;19957;-70
2023/06/06 10:49:54;;;;;;;;;;;;;;;;;;5095439;28;20331;-70
2023/06/06 10:52:20;;;;;;;;;;;;;;;;;;5094226;28;20354;-70
2023/06/06 10:54:46;;;;;;;;;;;;;;;;;;5094210;28;19904;-68
2023/06/06 10:57:12;;;;;;;;;;;;;;;;;;5094140;28;19909;-68
2023/06/06 10:59:37;;;;;;;;;;;;;;;;;;5093857;28;19915;-68
2023/06/06 11:02:03;;;;;;;;;;;;;;;;;;5094111;28;20391;-68
2023/06/06 11:04:30;;;;;;;;;;;;;;;;;;5095938;28;19904;-68
2023/06/06 11:06:56;;;;;;;;;;;;;;;;;;5095835;28;19961;-68
2023/06/06 11:09:22;;;;;;;;;;;;;;;;;;5094242;28;19998;-68
2023/06/06 11:11:48;;;;;;;;;;;;;;;;;;5095288;28;19910;-67
2023/06/06 11:14:14;;;;;;;14.07;6.90;;;;;;;;;;5094828;28;20191;-68
2023/06/06 11:16:40;;;;;;;10.40;6.50;;;;;;;;;;5093552;28;20688;-68
2023/06/06 11:19:11;;;;;;;13.30;6.60;;;;;;;;;;5095059;28;20189;-67
2023/06/06 11:21:37;;;;;;;10.07;6.10;;;;;;;;;;5119646;22;20177;-69
2023/06/06 11:24:04;;;;;;;14.97;6.93;;;;;;;;;;5112176;28;20676;-69
2023/06/06 11:26:30;;;;;;;11.50;5.93;;;;;;;;;;5115822;28;20176;-69
2023/06/06 11:28:56;;;;;;;9.93;6.20;;;;;;;;;;5115243;28;20168;-69
2023/06/06 11:31:26;;;;;;;11.40;7.33;;;;;;;;;;5115009;28;20183;-68
2023/06/06 11:33:52;;;;;;;12.83;7.97;;;;;;;;;;5113559;28;20196;-68
2023/06/06 11:36:18;;;;;;;19.87;7.40;;;;;;;;;;5114764;28;20173;-68
2023/06/06 11:38:45;;;;;;;16.10;7.13;;;;;;;;;;5114860;28;20185;-68
2023/06/06 11:41:11;;;;;;;11.17;5.93;;;;;;;;;;5114829;28;20196;-68
2023/06/06 11:43:38;;;;;;;13.03;6.40;;;;;;;;;;5114793;28;20275;-69
2023/06/06 11:46:04;;;;;;;11.60;7.17;;;;;;;;;;5114749;28;20184;-68
2023/06/06 11:48:30;;;;;;;12.90;6.47;;;;;;;;;;5113347;28;20191;-68
2023/06/06 11:50:56;;;;;;;7.87;5.73;;;;;;;;;;5114698;28;20177;-69
2023/06/06 11:53:34;;;;;;;9.77;5.97;;;;;;;;;;5114820;28;20275;-68
2023/06/06 11:56:00;;;;;;;13.60;7.07;;;;;;;;;;5115004;28;20612;-68
2023/06/06 11:58:29;;;;;;;8.97;5.97;;;;;;;;;;5114620;28;20185;-68
2023/06/06 12:00:56;;;;;;;7.60;5.80;;;;;;;;;;5121641;28;20204;-69
2023/06/06 12:03:22;;;;;;;10.37;5.90;;;;;;;;;;5121063;28;20610;-69
2023/06/06 12:05:58;;;;;;;7.53;5.93;;;;;;;;;;5114647;28;20190;-68
2023/06/06 12:08:24;;;;;;;7.87;5.33;;;;;;;;;;5113256;28;20172;-69
2023/06/06 12:10:50;;;;;;;8.67;5.83;;;;;;;;;;5114803;28;20183;-69
2023/06/06 12:13:32;;;;;;;9.60;5.67;;;;;;;;;;5114311;28;20196;-69
2023/06/06 12:15:58;;;;;;;9.30;5.43;;;;;;;;;;5112981;28;20267;-68
2023/06/06 12:18:24;;;;;;;6.70;5.50;;;;;;;;;;5112859;28;20184;-68
2023/06/06 12:20:50;;;;;;;7.47;5.77;;;;;;;;;;5112855;28;20204;-68
2023/06/06 12:23:28;;;;;;;9.23;5.00;;;;;;;;;;5114104;28;20271;-69
2023/06/06 12:25:57;;;;;;;9.33;5.20;;;;;;;;;;5114557;28;20641;-67
2023/06/06 12:28:23;;;;;;;8.23;5.20;;;;;;;;;;5114794;28;20221;-68
2023/06/06 12:30:51;;;;;;;12.03;5.70;;;;;;;;;;5114187;28;20176;-68
2023/06/06 12:33:18;;;;;;;7.03;4.50;;;;;;;;;;5112756;28;20203;-68
2023/06/06 12:35:45;;;;;;;8.57;4.50;;;;;;;;;;5113184;28;20211;-68
2023/06/06 12:38:21;;;;;;;5.97;4.53;;;;;;;;;;5113000;28;20213;-68
2023/06/06 12:40:56;;;;;;;8.97;5.30;;;;;;;;;;5114239;28;20286;-68
2023/06/06 12:43:22;;;;;;;6.83;4.90;;;;;;;;;;5114014;28;20188;-68
2023/06/06 12:45:48;;;;;;;5.47;4.80;;;;;;;;;;5114054;28;20172;-69
2023/06/06 12:48:15;;;;;;;12.57;5.27;;;;;;;;;;5112682;28;20181;-68
2023/06/06 12:50:44;;;;;;;10.57;5.50;;;;;;;;;;5114630;28;20667;-68
2023/06/06 12:53:12;;;;;;;6.30;4.63;;;;;;;;;;5113271;28;20133;-68
2023/06/06 12:55:38;;;;;;;13.07;5.53;;;;;;;;;;5112517;28;20395;-68
2023/06/06 12:58:05;;;;;;;8.27;4.72;;;;;;;;;;5113575;28;20637;-68
2023/06/06 13:00:31;;;;;;;9.23;5.38;;;;;;;;;;5113768;28;20396;-69
2023/06/06 13:02:58;;;;;;;8.13;4.55;;;;;;;;;;5113110;28;20868;-68
2023/06/06 13:05:24;;;;;;;7.53;5.10;;;;;;;;;;5113075;28;20382;-68
2023/06/06 13:07:50;;;;;;;7.25;5.35;;;;;;;;;;5112456;28;20395;-68
2023/06/06 13:10:16;;;;;;;8.10;5.30;;;;;;;;;;5112501;28;20376;-69
2023/06/06 13:12:42;;;;;;;9.38;5.22;;;;;;;;;;5112387;28;20372;-68
2023/06/06 13:15:09;;;;;;;10.55;4.60;;;;;;;;;;5112149;28;20426;-69
2023/06/06 13:17:35;;;;;;;8.87;4.50;;;;;;;;;;5111469;28;20774;-69
2023/06/06 13:20:02;;;;;;;5.72;4.43;;;;;;;;;;5112251;28;20423;-68
2023/06/06 13:22:28;;;;;;;7.03;4.90;;;;;;;;;;5110792;28;20388;-69
2023/06/06 13:24:54;;;;;;;8.30;4.80;;;;;;;;;;5112506;28;20377;-69
2023/06/06 13:27:21;;;;;;;5.00;4.28;;;;;;;;;;5112292;28;20376;-69
2023/06/06 13:29:47;;;;;;;8.47;4.43;;;;;;;;;;5110896;28;20393;-70
2023/06/06 13:32:14;;;;;;;7.20;4.72;;;;;;;;;;5112434;28;20461;-67
2023/06/06 13:34:40;;;;;;;7.10;4.57;;;;;;;;;;5110876;28;20429;-67
2023/06/06 13:37:06;;;;;;;8.75;4.80;;;;;;;;;;5110821;28;20380;-68
2023/06/06 13:39:32;;;;;;;8.77;5.40;;;;;;;;;;5112032;28;20376;-67
2023/06/06 13:41:58;;;;;;;10.23;6.00;;;;;;;;;;5110863;28;20742;-67
2023/06/06 13:44:24;;;;;;;7.55;5.10;;;;;;;;;;5111922;28;20429;-67
2023/06/06 13:46:51;;;;;;;6.72;4.70;;;;;;;;;;5114233;28;20381;-67
2023/06/06 13:49:17;;;;;;;8.65;4.70;;;;;;;;;;5114434;28;20372;-68
2023/06/06 13:51:49;;;;;;;8.55;4.50;;;;;;;;;;5115860;28;20735;-67
2023/06/06 13:54:15;;;;;;;5.93;4.50;;;;;;;;;;5114336;28;20766;-68
2023/06/06 13:56:47;;;;;;;7.85;4.82;;;;;;;;;;5114265;28;20369;-67
2023/06/06 13:59:13;;;;;;;6.57;4.38;;;;;;;;;;5114322;28;20905;-67
2023/06/06 14:01:40;;;;;;;9.82;5.25;;;;;;;;;;5114104;28;20400;-67
2023/06/06 14:04:06;;;;;;;8.05;4.78;;;;;;;;;;5115433;28;20184;-68
2023/06/06 14:06:33;;;;;;;7.85;4.80;;;;;;;;;;5115455;28;20376;-67
2023/06/06 14:08:59;;;;;;;8.87;4.47;;;;;;;;;;5116530;28;20172;-67
2023/06/06 14:11:26;;;;;;;8.90;4.27;;;;;;;;;;5116752;28;20184;-68
2023/06/06 14:13:52;;;;;;;7.07;4.33;;;;;;;;;;5116599;28;20223;-67
2023/06/06 14:16:18;;;;;;;5.53;4.47;;;;;;;;;;5115288;28;20183;-68
2023/06/06 14:18:46;;;;;;;8.10;4.33;;;;;;;;;;5116649;28;20176;-68
2023/06/06 14:21:30;;;;;;;5.83;4.10;;;;;;;;;;5116343;28;20197;-69
2023/06/06 14:23:56;;;;;;;7.70;4.50;;;;;;;;;;5116270;28;20244;-68
2023/06/06 14:26:22;;;;;;;6.03;4.90;;;;;;;;;;5115159;28;20285;-68
2023/06/06 14:28:49;;;;;;;7.83;4.93;;;;;;;;;;5116423;28;20176;-68
2023/06/06 14:31:16;;;;;;;7.50;4.27;;;;;;;;;;5115392;28;20730;-68